createdAt,value
2023-08-10T00:00:00.063Z,0.00
2023-08-10T00:00:55.233Z,0.00
2023-08-10T00:01:50.470Z,0.00
2023-08-10T00:02:45.799Z,0.00
2023-08-10T00:03:40.819Z,0.00
2023-08-10T00:04:35.796Z,0.00
2023-08-10T00:05:30.818Z,0.00
2023-08-10T00:06:26.029Z,0.00
2023-08-10T00:07:21.142Z,0.00
2023-08-10T00:08:16.292Z,0.00
2023-08-10T00:09:11.271Z,0.00
2023-08-10T00:10:06.381Z,0.00
2023-08-10T00:11:01.481Z,0.00
2023-08-10T00:11:56.535Z,0.00
2023-08-10T00:12:51.768Z,0.00
2023-08-10T00:13:46.780Z,0.00
2023-08-10T00:14:41.753Z,0.00
2023-08-10T00:15:36.878Z,0.00
2023-08-10T00:16:32.044Z,0.00
2023-08-10T00:17:27.129Z,0.00
2023-08-10T00:18:22.080Z,0.00
2023-08-10T00:19:17.091Z,0.00
2023-08-10T00:20:12.158Z,0.00
2023-08-10T00:21:07.339Z,0.00
2023-08-10T00:22:02.459Z,0.00
2023-08-10T00:22:57.650Z,0.00
2023-08-10T00:23:52.866Z,0.00
2023-08-10T00:24:48.565Z,0.00
2023-08-10T00:25:43.766Z,0.00
2023-08-10T00:26:39.052Z,0.00
2023-08-10T00:27:34.321Z,0.00
2023-08-10T00:28:30.324Z,0.00
2023-08-10T00:29:25.300Z,0.00
2023-08-10T00:30:20.587Z,0.00
2023-08-10T00:31:16.435Z,0.00
2023-08-10T00:32:11.679Z,0.00
2023-08-10T00:33:08.977Z,0.00
2023-08-10T00:34:03.184Z,0.00
2023-08-10T00:34:58.426Z,0.00
2023-08-10T00:35:54.282Z,0.00
2023-08-10T00:36:49.497Z,0.00
2023-08-10T00:37:44.915Z,0.00
2023-08-10T00:38:40.759Z,0.00
2023-08-10T00:39:35.882Z,0.00
2023-08-10T00:40:31.689Z,0.00
2023-08-10T00:41:26.920Z,0.00
2023-08-10T00:42:22.313Z,0.00
2023-08-10T00:43:18.186Z,0.00
2023-08-10T00:44:13.167Z,0.00
2023-08-10T00:45:08.433Z,0.00
2023-08-10T00:46:04.680Z,0.00
2023-08-10T00:46:59.977Z,0.00
2023-08-10T00:47:55.817Z,0.00
2023-08-10T00:48:51.207Z,0.00
2023-08-10T00:49:46.205Z,0.00
2023-08-10T00:50:42.009Z,0.00
2023-08-10T00:51:37.289Z,0.00
2023-08-10T00:52:33.110Z,0.00
2023-08-10T00:53:28.486Z,0.00
2023-08-10T00:54:23.652Z,0.00
2023-08-10T00:55:19.462Z,0.00
2023-08-10T00:56:14.738Z,0.00
2023-08-10T00:57:09.965Z,0.00
2023-08-10T00:58:06.335Z,0.00
2023-08-10T00:59:01.765Z,0.00
2023-08-10T00:59:57.486Z,0.00
2023-08-10T01:00:52.577Z,0.00
2023-08-10T01:01:47.959Z,0.00
2023-08-10T01:02:43.678Z,0.00
2023-08-10T01:03:39.226Z,0.00
2023-08-10T01:04:34.914Z,0.00
2023-08-10T01:05:30.094Z,0.00
2023-08-10T01:06:25.335Z,0.00
2023-08-10T01:07:21.179Z,0.00
2023-08-10T01:08:16.399Z,0.00
2023-08-10T01:09:11.843Z,0.00
2023-08-10T01:10:07.797Z,0.00
2023-08-10T01:11:03.078Z,0.00
2023-08-10T01:11:58.899Z,0.00
2023-08-10T01:12:54.151Z,0.00
2023-08-10T01:13:49.674Z,0.00
2023-08-10T01:14:45.240Z,0.00
2023-08-10T01:15:40.552Z,0.00
2023-08-10T01:16:39.122Z,0.00
2023-08-10T01:17:31.626Z,0.00
2023-08-10T01:18:27.102Z,0.00
2023-08-10T01:19:22.260Z,0.00
2023-08-10T01:20:18.192Z,0.00
2023-08-10T01:21:13.309Z,0.00
2023-08-10T01:22:08.710Z,0.00
2023-08-10T01:23:04.542Z,0.00
2023-08-10T01:23:59.793Z,0.00
2023-08-10T01:24:55.345Z,0.00
2023-08-10T01:25:51.369Z,0.00
2023-08-10T01:26:46.583Z,0.00
2023-08-10T01:27:42.439Z,0.00
2023-08-10T01:28:37.669Z,0.00
2023-08-10T01:29:33.381Z,0.00
2023-08-10T01:30:28.231Z,0.00
2023-08-10T01:31:23.601Z,0.00
2023-08-10T01:32:19.354Z,0.00
2023-08-10T01:33:14.730Z,0.00
2023-08-10T01:34:09.977Z,0.00
2023-08-10T01:35:06.357Z,0.00
2023-08-10T01:36:01.600Z,0.00
2023-08-10T01:36:57.458Z,0.00
2023-08-10T01:37:52.669Z,0.00
2023-08-10T01:38:48.124Z,0.00
2023-08-10T01:39:43.951Z,0.00
2023-08-10T01:40:39.086Z,0.00
2023-08-10T01:41:34.900Z,0.00
2023-08-10T01:42:30.153Z,0.00
2023-08-10T01:43:25.528Z,0.00
2023-08-10T01:44:21.236Z,0.00
2023-08-10T01:45:16.617Z,0.00
2023-08-10T01:46:11.655Z,0.00
2023-08-10T01:47:06.826Z,0.00
2023-08-10T01:48:02.295Z,0.00
2023-08-10T01:48:57.325Z,0.00
2023-08-10T01:49:52.475Z,0.00
2023-08-10T01:50:47.333Z,0.00
2023-08-10T01:51:42.317Z,0.00
2023-08-10T01:52:37.396Z,0.00
2023-08-10T01:53:32.372Z,0.00
2023-08-10T01:54:27.480Z,0.00
2023-08-10T01:55:22.677Z,0.00
2023-08-10T01:56:17.535Z,0.00
2023-08-10T01:57:12.537Z,0.00
2023-08-10T01:58:07.719Z,0.00
2023-08-10T01:59:02.633Z,0.00
2023-08-10T01:59:57.768Z,0.00
2023-08-10T02:00:52.775Z,0.00
2023-08-10T02:01:47.855Z,0.00
2023-08-10T02:02:43.000Z,0.00
2023-08-10T02:03:38.180Z,0.00
2023-08-10T02:04:33.074Z,0.00
2023-08-10T02:05:28.282Z,0.00
2023-08-10T02:06:23.170Z,0.00
2023-08-10T02:07:18.305Z,0.00
2023-08-10T02:08:13.829Z,0.00
2023-08-10T02:09:09.088Z,0.00
2023-08-10T02:10:04.318Z,0.00
2023-08-10T02:11:00.330Z,0.00
2023-08-10T02:11:55.445Z,0.00
2023-08-10T02:12:51.394Z,0.00
2023-08-10T02:13:46.492Z,0.00
2023-08-10T02:14:41.913Z,0.00
2023-08-10T02:15:37.797Z,0.00
2023-08-10T02:16:33.211Z,0.00
2023-08-10T02:17:28.486Z,0.00
2023-08-10T02:18:24.851Z,0.00
2023-08-10T02:19:20.093Z,0.00
2023-08-10T02:20:15.987Z,0.00
2023-08-10T02:21:11.043Z,0.00
2023-08-10T02:22:07.029Z,0.00
2023-08-10T02:23:02.086Z,0.00
2023-08-10T02:23:57.367Z,0.00
2023-08-10T02:24:53.129Z,0.00
2023-08-10T02:25:48.362Z,0.00
2023-08-10T02:26:43.902Z,0.00
2023-08-10T02:27:39.480Z,0.00
2023-08-10T02:28:34.710Z,0.00
2023-08-10T02:29:30.014Z,0.00
2023-08-10T02:30:26.087Z,0.00
2023-08-10T02:31:21.426Z,0.00
2023-08-10T02:32:17.204Z,0.00
2023-08-10T02:33:12.443Z,0.00
2023-08-10T02:34:07.592Z,0.00
2023-08-10T02:35:03.406Z,0.00
2023-08-10T02:35:58.686Z,0.00
2023-08-10T02:36:54.677Z,0.00
2023-08-10T02:37:49.623Z,0.00
2023-08-10T02:38:44.993Z,0.00
2023-08-10T02:39:40.648Z,0.00
2023-08-10T02:40:35.947Z,0.00
2023-08-10T02:41:31.146Z,0.00
2023-08-10T02:42:27.731Z,0.00
2023-08-10T02:43:22.771Z,0.00
2023-08-10T02:44:18.529Z,0.00
2023-08-10T02:45:13.631Z,0.00
2023-08-10T02:46:08.950Z,0.00
2023-08-10T02:47:04.766Z,0.00
2023-08-10T02:48:00.080Z,0.00
2023-08-10T02:48:55.916Z,0.00
2023-08-10T02:49:51.054Z,0.00
2023-08-10T02:50:46.492Z,0.00
2023-08-10T02:51:42.342Z,0.00
2023-08-10T02:52:37.624Z,0.00
2023-08-10T02:53:32.913Z,0.00
2023-08-10T02:54:29.249Z,0.00
2023-08-10T02:55:24.535Z,0.00
2023-08-10T02:56:20.348Z,0.00
2023-08-10T02:57:15.610Z,0.00
2023-08-10T02:58:11.131Z,0.00
2023-08-10T02:59:06.715Z,0.00
2023-08-10T03:00:01.962Z,0.00
2023-08-10T03:00:57.855Z,0.00
2023-08-10T03:01:52.941Z,0.00
2023-08-10T03:02:48.536Z,0.00
2023-08-10T03:03:43.942Z,0.00
2023-08-10T03:04:39.253Z,0.00
2023-08-10T03:05:34.345Z,0.00
2023-08-10T03:06:30.830Z,0.00
2023-08-10T03:07:26.097Z,0.00
2023-08-10T03:08:21.209Z,0.00
2023-08-10T03:09:16.315Z,0.00
2023-08-10T03:10:12.170Z,0.00
2023-08-10T03:11:07.443Z,0.00
2023-08-10T03:12:03.583Z,0.00
2023-08-10T03:12:58.623Z,0.00
2023-08-10T03:13:53.738Z,0.00
2023-08-10T03:14:49.719Z,0.00
2023-08-10T03:15:45.020Z,0.00
2023-08-10T03:16:40.293Z,0.00
2023-08-10T03:17:36.793Z,0.00
2023-08-10T03:18:31.869Z,0.00
2023-08-10T03:19:27.737Z,0.00
2023-08-10T03:20:22.947Z,0.00
2023-08-10T03:21:18.362Z,0.00
2023-08-10T03:22:13.957Z,0.00
2023-08-10T03:23:09.267Z,0.00
2023-08-10T03:24:04.374Z,0.00
2023-08-10T03:24:59.608Z,0.00
2023-08-10T03:25:54.947Z,0.00
2023-08-10T03:26:50.092Z,0.00
2023-08-10T03:27:45.205Z,1.00
2023-08-10T03:28:40.425Z,1.00
2023-08-10T03:29:35.264Z,1.00
2023-08-10T03:30:30.435Z,0.00
2023-08-10T03:31:25.558Z,1.00
2023-08-10T03:32:20.728Z,1.00
2023-08-10T03:33:15.737Z,2.00
2023-08-10T03:34:10.773Z,1.00
2023-08-10T03:35:05.755Z,2.00
2023-08-10T03:36:00.912Z,2.00
2023-08-10T03:36:55.875Z,3.00
2023-08-10T03:37:50.951Z,3.00
2023-08-10T03:38:46.084Z,3.00
2023-08-10T03:39:40.973Z,4.00
2023-08-10T03:40:36.022Z,4.00
2023-08-10T03:41:31.155Z,5.00
2023-08-10T03:42:26.129Z,6.00
2023-08-10T03:43:21.303Z,6.00
2023-08-10T03:44:16.300Z,7.00
2023-08-10T03:45:11.310Z,9.00
2023-08-10T03:46:06.335Z,11.00
2023-08-10T03:47:01.393Z,12.00
2023-08-10T03:47:56.436Z,15.00
2023-08-10T03:48:51.666Z,18.00
2023-08-10T03:49:46.577Z,20.00
2023-08-10T03:50:41.623Z,23.00
2023-08-10T03:51:36.655Z,28.00
2023-08-10T03:52:31.674Z,30.00
2023-08-10T03:53:26.690Z,33.00
2023-08-10T03:54:21.752Z,39.00
2023-08-10T03:55:16.760Z,44.00
2023-08-10T03:56:11.832Z,51.00
2023-08-10T03:57:06.894Z,58.00
2023-08-10T03:58:02.878Z,69.00
2023-08-10T03:58:58.057Z,73.00
2023-08-10T03:59:52.938Z,83.00
2023-08-10T04:00:48.181Z,92.00
2023-08-10T04:01:43.243Z,103.00
2023-08-10T04:02:38.340Z,113.00
2023-08-10T04:03:33.696Z,127.00
2023-08-10T04:04:28.397Z,140.00
2023-08-10T04:05:23.519Z,156.00
2023-08-10T04:06:18.568Z,163.00
2023-08-10T04:07:13.661Z,174.00
2023-08-10T04:08:08.761Z,197.00
2023-08-10T04:09:03.747Z,210.00
2023-08-10T04:09:58.746Z,223.00
2023-08-10T04:10:53.924Z,240.00
2023-08-10T04:11:48.990Z,251.00
2023-08-10T04:12:44.005Z,269.00
2023-08-10T04:13:39.008Z,293.00
2023-08-10T04:14:34.080Z,320.00
2023-08-10T04:15:29.323Z,331.00
2023-08-10T04:16:24.782Z,363.00
2023-08-10T04:17:20.046Z,386.00
2023-08-10T04:18:15.215Z,423.00
2023-08-10T04:19:10.393Z,465.00
2023-08-10T04:20:05.288Z,483.00
2023-08-10T04:21:00.260Z,528.00
2023-08-10T04:21:55.298Z,531.00
2023-08-10T04:22:50.266Z,544.00
2023-08-10T04:23:45.518Z,574.00
2023-08-10T04:24:40.438Z,589.00
2023-08-10T04:25:35.483Z,596.00
2023-08-10T04:26:30.486Z,598.00
2023-08-10T04:27:27.755Z,666.00
2023-08-10T04:28:20.628Z,640.00
2023-08-10T04:29:15.947Z,684.00
2023-08-10T04:30:10.809Z,689.00
2023-08-10T04:31:06.028Z,753.00
2023-08-10T04:32:01.037Z,725.00
2023-08-10T04:32:56.080Z,771.00
2023-08-10T04:33:51.073Z,816.00
2023-08-10T04:34:46.239Z,848.00
2023-08-10T04:35:41.284Z,854.00
2023-08-10T04:36:36.307Z,864.00
2023-08-10T04:37:31.305Z,902.00
2023-08-10T04:38:26.730Z,944.00
2023-08-10T04:39:22.037Z,906.00
2023-08-10T04:40:17.949Z,972.00
2023-08-10T04:41:12.687Z,981.00
2023-08-10T04:42:08.153Z,1009.00
2023-08-10T04:43:03.485Z,1044.00
2023-08-10T04:43:58.984Z,1064.00
2023-08-10T04:44:54.319Z,1080.00
2023-08-10T04:45:49.879Z,1103.00
2023-08-10T04:46:45.163Z,1122.00
2023-08-10T04:47:40.714Z,1162.00
2023-08-10T04:48:36.053Z,1198.00
2023-08-10T04:49:31.680Z,1211.00
2023-08-10T04:50:26.586Z,1213.00
2023-08-10T04:51:21.654Z,1201.00
2023-08-10T04:52:16.705Z,1280.00
2023-08-10T04:53:11.789Z,1303.00
2023-08-10T04:54:06.850Z,1306.00
2023-08-10T04:55:01.930Z,1338.00
2023-08-10T04:55:57.002Z,1348.00
2023-08-10T04:56:52.072Z,1395.00
2023-08-10T04:57:47.133Z,1442.00
2023-08-10T04:58:42.224Z,1449.00
2023-08-10T04:59:37.349Z,1473.00
2023-08-10T05:00:32.266Z,1459.00
2023-08-10T05:01:27.339Z,1479.00
2023-08-10T05:02:23.747Z,1540.00
2023-08-10T05:03:19.499Z,1558.00
2023-08-10T05:04:14.911Z,1580.00
2023-08-10T05:05:10.259Z,1577.00
2023-08-10T05:06:05.487Z,1616.00
2023-08-10T05:07:00.944Z,1616.00
2023-08-10T05:07:56.395Z,1633.00
2023-08-10T05:08:51.688Z,1636.00
2023-08-10T05:09:56.179Z,1632.00
2023-08-10T05:10:43.450Z,1667.00
2023-08-10T05:11:37.820Z,1689.00
2023-08-10T05:12:34.487Z,1713.00
2023-08-10T05:13:30.023Z,1747.00
2023-08-10T05:14:25.162Z,1773.00
2023-08-10T05:15:20.664Z,1759.00
2023-08-10T05:16:16.177Z,1816.00
2023-08-10T05:17:11.628Z,1878.00
2023-08-10T05:18:07.139Z,1879.00
2023-08-10T05:19:02.229Z,1876.00
2023-08-10T05:19:57.269Z,1899.00
2023-08-10T05:20:52.384Z,1908.00
2023-08-10T05:21:47.437Z,1915.00
2023-08-10T05:22:48.217Z,1953.00
2023-08-10T05:23:43.743Z,2008.00
2023-08-10T05:24:39.060Z,2026.00
2023-08-10T05:25:34.450Z,2081.00
2023-08-10T05:26:29.974Z,2050.00
2023-08-10T05:27:25.482Z,2088.00
2023-08-10T05:28:21.087Z,2091.00
2023-08-10T05:29:16.445Z,2074.00
2023-08-10T05:30:11.879Z,2108.00
2023-08-10T05:31:07.232Z,2134.00
2023-08-10T05:32:03.076Z,2121.00
2023-08-10T05:32:58.389Z,2170.00
2023-08-10T05:33:54.114Z,2166.00
2023-08-10T05:36:14.770Z,2218.00
2023-08-10T05:37:10.730Z,2153.00
2023-08-10T05:38:05.599Z,2144.00
2023-08-10T05:39:00.848Z,2212.00
2023-08-10T05:39:56.360Z,2199.00
2023-08-10T05:40:51.860Z,2244.00
2023-08-10T05:41:47.421Z,2270.00
2023-08-10T05:42:42.944Z,2326.00
2023-08-10T05:43:38.202Z,2323.00
2023-08-10T05:44:33.609Z,2363.00
2023-08-10T05:45:29.292Z,2407.00
2023-08-10T05:46:24.646Z,2426.00
2023-08-10T05:47:20.071Z,2462.00
2023-08-10T05:48:15.618Z,2470.00
2023-08-10T05:49:10.869Z,2482.00
2023-08-10T05:50:06.259Z,2430.00
2023-08-10T05:51:01.790Z,2482.00
2023-08-10T05:51:57.291Z,2510.00
2023-08-10T05:52:52.752Z,2565.00
2023-08-10T05:53:48.099Z,2576.00
2023-08-10T05:54:43.749Z,2641.00
2023-08-10T05:55:39.122Z,2669.00
2023-08-10T05:56:34.620Z,2709.00
2023-08-10T05:57:30.107Z,2770.00
2023-08-10T05:58:25.724Z,2762.00
2023-08-10T05:59:20.936Z,2821.00
2023-08-10T06:00:16.490Z,2808.00
2023-08-10T06:01:11.886Z,2878.00
2023-08-10T06:02:07.523Z,2863.00
2023-08-10T06:03:02.864Z,2862.00
2023-08-10T06:03:58.413Z,2802.00
2023-08-10T06:04:53.628Z,2914.00
2023-08-10T06:05:49.276Z,2842.00
2023-08-10T06:06:44.655Z,2914.00
2023-08-10T06:07:40.237Z,2939.00
2023-08-10T06:08:35.718Z,2997.00
2023-08-10T06:09:31.434Z,2998.00
2023-08-10T06:10:26.674Z,3035.00
2023-08-10T06:11:30.955Z,3052.00
2023-08-10T06:12:18.754Z,3083.00
2023-08-10T06:13:13.204Z,3103.00
2023-08-10T06:14:08.768Z,3160.00
2023-08-10T06:15:04.057Z,3154.00
2023-08-10T06:15:59.423Z,3166.00
2023-08-10T06:16:54.837Z,3148.00
2023-08-10T06:17:50.215Z,3228.00
2023-08-10T06:18:45.598Z,3191.00
2023-08-10T06:19:41.010Z,3188.00
2023-08-10T06:20:36.381Z,3272.00
2023-08-10T06:21:31.754Z,3307.00
2023-08-10T06:22:27.187Z,3301.00
2023-08-10T06:23:22.542Z,3370.00
2023-08-10T06:24:18.277Z,3314.00
2023-08-10T06:25:13.794Z,3391.00
2023-08-10T06:26:09.168Z,3443.00
2023-08-10T06:27:04.659Z,3602.00
2023-08-10T06:28:00.099Z,3701.00
2023-08-10T06:28:55.449Z,3636.00
2023-08-10T06:29:51.161Z,3717.00
2023-08-10T06:30:46.562Z,3747.00
2023-08-10T06:31:42.139Z,3862.00
2023-08-10T06:32:37.609Z,3922.00
2023-08-10T06:33:32.966Z,3972.00
2023-08-10T06:34:28.362Z,3999.00
2023-08-10T06:35:24.025Z,3965.00
2023-08-10T06:36:19.410Z,4030.00
2023-08-10T06:37:14.781Z,4034.00
2023-08-10T06:38:10.258Z,4084.00
2023-08-10T06:39:05.880Z,4042.00
2023-08-10T06:40:01.080Z,4112.00
2023-08-10T06:40:56.480Z,4189.00
2023-08-10T06:41:51.871Z,4148.00
2023-08-10T06:42:47.333Z,4358.00
2023-08-10T06:43:42.706Z,4512.00
2023-08-10T06:44:38.394Z,4604.00
2023-08-10T06:45:33.743Z,4624.00
2023-08-10T06:46:29.212Z,4680.00
2023-08-10T06:47:24.563Z,4756.00
2023-08-10T06:48:20.071Z,5023.00
2023-08-10T06:49:15.753Z,5215.00
2023-08-10T06:50:10.999Z,5489.00
2023-08-10T06:51:06.357Z,5634.00
2023-08-10T06:52:01.770Z,6080.00
2023-08-10T06:52:57.111Z,6700.00
2023-08-10T06:53:52.768Z,7691.00
2023-08-10T06:54:48.321Z,9156.00
2023-08-10T06:55:43.601Z,9789.00
2023-08-10T06:56:39.146Z,10509.00
2023-08-10T06:57:34.602Z,10617.00
2023-08-10T06:59:25.934Z,11657.00
2023-08-10T07:01:16.509Z,12226.00
2023-08-10T07:02:12.698Z,13252.00
2023-08-10T07:03:07.575Z,13226.00
2023-08-10T07:04:02.988Z,13501.00
2023-08-10T07:04:58.638Z,14020.00
2023-08-10T07:05:53.880Z,14146.00
2023-08-10T07:06:49.598Z,13775.00
2023-08-10T07:07:45.020Z,13404.00
2023-08-10T07:08:40.615Z,15097.00
2023-08-10T07:09:36.147Z,14495.00
2023-08-10T07:10:31.665Z,15246.00
2023-08-10T07:11:27.086Z,15431.00
2023-08-10T07:12:22.785Z,17664.00
2023-08-10T07:13:18.293Z,18576.00
2023-08-10T07:14:13.749Z,17824.00
2023-08-10T07:15:09.323Z,16664.00
2023-08-10T07:16:04.654Z,14254.00
2023-08-10T07:17:00.075Z,13372.00
2023-08-10T07:17:55.656Z,12978.00
2023-08-10T07:18:50.931Z,12727.00
2023-08-10T07:19:46.499Z,12747.00
2023-08-10T07:20:41.952Z,12791.00
2023-08-10T07:21:37.287Z,12831.00
2023-08-10T07:22:39.304Z,13037.00
2023-08-10T07:23:29.199Z,13062.00
2023-08-10T07:24:23.633Z,13093.00
2023-08-10T07:25:19.187Z,13015.00
2023-08-10T07:26:14.573Z,13036.00
2023-08-10T07:27:10.574Z,12909.00
2023-08-10T07:28:05.614Z,12983.00
2023-08-10T07:29:01.059Z,13444.00
2023-08-10T07:29:57.864Z,13277.00
2023-08-10T07:30:53.331Z,13424.00
2023-08-10T07:31:48.834Z,13683.00
2023-08-10T07:32:44.296Z,13898.00
2023-08-10T07:33:39.756Z,14069.00
2023-08-10T07:34:34.789Z,13940.00
2023-08-10T07:35:29.878Z,14384.00
2023-08-10T07:36:24.960Z,15181.00
2023-08-10T07:37:20.004Z,15625.00
2023-08-10T07:38:19.698Z,15745.00
2023-08-10T07:39:15.318Z,16912.00
2023-08-10T07:40:10.627Z,15924.00
2023-08-10T07:41:06.443Z,16105.00
2023-08-10T07:42:01.896Z,15574.00
2023-08-10T07:42:57.369Z,15136.00
2023-08-10T07:43:53.923Z,15187.00
2023-08-10T07:44:49.419Z,15037.00
2023-08-10T07:45:45.181Z,15028.00
2023-08-10T07:46:40.737Z,15224.00
2023-08-10T07:47:36.170Z,15152.00
2023-08-10T07:48:32.041Z,15185.00
2023-08-10T07:49:27.462Z,15548.00
2023-08-10T07:50:23.237Z,15826.00
2023-08-10T07:51:18.857Z,17312.00
2023-08-10T07:52:14.176Z,16280.00
2023-08-10T07:53:10.041Z,16624.00
2023-08-10T07:54:05.627Z,16808.00
2023-08-10T07:55:01.034Z,17472.00
2023-08-10T07:55:57.572Z,18288.00
2023-08-10T07:56:52.879Z,17752.00
2023-08-10T07:57:48.755Z,17744.00
2023-08-10T07:58:44.185Z,17632.00
2023-08-10T07:59:39.770Z,17056.00
2023-08-10T08:00:35.481Z,17464.00
2023-08-10T08:01:31.222Z,17120.00
2023-08-10T08:02:26.960Z,17248.00
2023-08-10T08:03:22.338Z,17464.00
2023-08-10T08:04:17.693Z,17488.00
2023-08-10T08:05:13.491Z,17520.00
2023-08-10T08:06:08.990Z,18296.00
2023-08-10T08:07:04.417Z,17896.00
2023-08-10T08:08:00.741Z,18088.00
2023-08-10T08:08:56.215Z,20312.00
2023-08-10T08:09:52.061Z,28376.00
2023-08-10T08:10:47.609Z,25712.00
2023-08-10T08:11:43.194Z,27624.00
2023-08-10T08:12:38.822Z,20352.00
2023-08-10T08:13:34.239Z,20680.00
2023-08-10T08:14:30.071Z,20104.00
2023-08-10T08:15:25.389Z,20088.00
2023-08-10T08:16:20.886Z,19904.00
2023-08-10T08:17:16.560Z,20056.00
2023-08-10T08:18:12.150Z,18896.00
2023-08-10T08:19:07.574Z,19912.00
2023-08-10T08:20:03.826Z,19640.00
2023-08-10T08:20:59.230Z,19432.00
2023-08-10T08:21:55.103Z,19936.00
2023-08-10T08:22:50.531Z,20480.00
2023-08-10T08:23:46.113Z,20592.00
2023-08-10T08:24:41.827Z,21176.00
2023-08-10T08:25:39.326Z,21392.00
2023-08-10T08:26:33.257Z,22568.00
2023-08-10T08:27:28.658Z,21872.00
2023-08-10T08:28:23.977Z,23608.00
2023-08-10T08:29:19.901Z,21392.00
2023-08-10T08:30:15.377Z,21528.00
2023-08-10T08:31:10.764Z,20608.00
2023-08-10T08:32:07.248Z,21248.00
2023-08-10T08:33:02.702Z,21368.00
2023-08-10T08:33:58.414Z,22608.00
2023-08-10T08:34:53.938Z,22032.00
2023-08-10T08:35:49.373Z,21392.00
2023-08-10T08:36:45.322Z,21928.00
2023-08-10T08:37:40.659Z,22680.00
2023-08-10T08:38:36.136Z,23096.00
2023-08-10T08:39:31.514Z,23608.00
2023-08-10T08:40:26.986Z,24168.00
2023-08-10T08:41:23.966Z,24504.00
2023-08-10T08:42:19.196Z,24544.00
2023-08-10T08:43:14.675Z,26040.00
2023-08-10T08:44:12.873Z,26000.00
2023-08-10T08:45:08.241Z,26656.00
2023-08-10T08:46:04.207Z,27136.00
2023-08-10T08:46:59.470Z,27776.00
2023-08-10T08:47:54.979Z,29240.00
2023-08-10T08:48:50.461Z,27736.00
2023-08-10T08:49:46.679Z,28504.00
2023-08-10T08:50:42.183Z,32688.00
2023-08-10T08:51:38.103Z,30312.00
2023-08-10T08:52:33.601Z,28936.00
2023-08-10T08:53:29.231Z,28240.00
2023-08-10T08:54:25.021Z,29000.00
2023-08-10T08:55:20.494Z,31864.00
2023-08-10T08:56:16.381Z,30968.00
2023-08-10T08:57:12.198Z,31136.00
2023-08-10T08:58:07.238Z,34568.00
2023-08-10T08:59:03.171Z,41440.00
2023-08-10T08:59:58.523Z,34744.00
2023-08-10T09:00:54.000Z,34752.00
2023-08-10T09:01:50.856Z,42784.00
2023-08-10T09:02:45.995Z,43128.00
2023-08-10T09:03:41.866Z,52912.00
2023-08-10T09:04:37.276Z,40768.00
2023-08-10T09:05:32.722Z,45200.00
2023-08-10T09:06:28.399Z,38200.00
2023-08-10T09:07:24.171Z,38904.00
2023-08-10T09:08:19.684Z,43808.00
2023-08-10T09:09:15.029Z,39800.00
2023-08-10T09:10:10.401Z,40200.00
2023-08-10T09:11:06.151Z,45976.00
2023-08-10T09:12:01.654Z,46448.00
2023-08-10T09:12:57.005Z,48920.00
2023-08-10T09:13:53.491Z,45472.00
2023-08-10T09:14:48.944Z,53520.00
2023-08-10T09:15:45.005Z,65535.00
2023-08-10T09:16:40.487Z,53968.00
2023-08-10T09:17:36.318Z,44792.00
2023-08-10T09:18:31.617Z,62648.00
2023-08-10T09:19:27.198Z,53336.00
2023-08-10T09:20:23.084Z,57584.00
2023-08-10T09:21:18.363Z,55520.00
2023-08-10T09:22:13.654Z,65535.00
2023-08-10T09:23:09.900Z,65535.00
2023-08-10T09:24:05.409Z,52016.00
2023-08-10T09:25:00.609Z,53904.00
2023-08-10T09:25:57.348Z,47512.00
2023-08-10T09:26:52.837Z,62216.00
2023-08-10T09:27:48.718Z,44424.00
2023-08-10T09:28:44.343Z,56144.00
2023-08-10T09:29:39.692Z,60496.00
2023-08-10T09:30:35.503Z,61240.00
2023-08-10T09:31:30.859Z,61200.00
2023-08-10T09:32:26.195Z,65535.00
2023-08-10T09:33:22.064Z,65535.00
2023-08-10T09:34:17.999Z,43688.00
2023-08-10T09:35:13.446Z,38592.00
2023-08-10T09:36:08.855Z,54752.00
2023-08-10T09:37:04.979Z,52144.00
2023-08-10T09:38:00.101Z,47824.00
2023-08-10T09:38:55.887Z,50472.00
2023-08-10T09:39:51.060Z,54160.00
2023-08-10T09:40:47.630Z,55328.00
2023-08-10T09:41:43.252Z,57032.00
2023-08-10T09:42:39.125Z,57312.00
2023-08-10T09:43:34.644Z,60440.00
2023-08-10T09:44:30.137Z,65535.00
2023-08-10T09:45:25.920Z,59432.00
2023-08-10T09:46:21.421Z,65535.00
2023-08-10T09:47:16.968Z,53720.00
2023-08-10T09:48:12.212Z,65535.00
2023-08-10T09:49:07.690Z,65535.00
2023-08-10T09:50:04.704Z,65535.00
2023-08-10T09:50:59.878Z,65535.00
2023-08-10T09:51:55.351Z,65535.00
2023-08-10T09:52:53.633Z,65535.00
2023-08-10T09:53:48.945Z,65535.00
2023-08-10T09:54:44.415Z,65535.00
2023-08-10T09:55:40.525Z,65535.00
2023-08-10T09:56:35.602Z,65535.00
2023-08-10T09:57:31.151Z,65535.00
2023-08-10T09:58:27.358Z,65535.00
2023-08-10T09:59:22.815Z,65535.00
2023-08-10T10:00:18.708Z,65535.00
2023-08-10T10:01:16.588Z,55360.00
2023-08-10T10:02:09.830Z,65535.00
2023-08-10T10:03:04.929Z,65535.00
2023-08-10T10:04:00.077Z,65535.00
2023-08-10T10:04:59.063Z,65535.00
2023-08-10T10:05:54.540Z,65535.00
2023-08-10T10:06:50.177Z,65535.00
2023-08-10T10:07:45.701Z,65535.00
2023-08-10T10:08:41.157Z,65535.00
2023-08-10T10:09:36.538Z,65535.00
2023-08-10T10:10:32.997Z,65535.00
2023-08-10T10:11:28.671Z,65535.00
2023-08-10T10:12:24.146Z,65535.00
2023-08-10T10:13:19.523Z,46296.00
2023-08-10T10:14:14.974Z,65535.00
2023-08-10T10:15:10.768Z,65535.00
2023-08-10T10:16:06.247Z,65535.00
2023-08-10T10:17:02.442Z,65535.00
2023-08-10T10:17:57.605Z,65535.00
2023-08-10T10:18:52.990Z,65535.00
2023-08-10T10:19:48.874Z,65535.00
2023-08-10T10:20:44.385Z,65535.00
2023-08-10T10:21:39.832Z,65535.00
2023-08-10T10:22:36.485Z,65535.00
2023-08-10T10:23:31.602Z,11984.00
2023-08-10T10:24:27.671Z,11121.00
2023-08-10T10:25:23.095Z,12773.00
2023-08-10T10:26:18.645Z,12683.00
2023-08-10T10:27:14.377Z,11891.00
2023-08-10T10:28:10.176Z,11863.00
2023-08-10T10:29:05.578Z,12406.00
2023-08-10T10:30:01.054Z,22560.00
2023-08-10T10:30:56.451Z,65535.00
2023-08-10T10:31:52.250Z,65535.00
2023-08-10T10:32:47.808Z,21304.00
2023-08-10T10:33:43.595Z,22344.00
2023-08-10T10:34:39.472Z,26096.00
2023-08-10T10:35:35.098Z,14019.00
2023-08-10T10:36:30.881Z,14347.00
2023-08-10T10:37:26.344Z,10084.00
2023-08-10T10:38:21.749Z,11209.00
2023-08-10T10:39:17.555Z,13254.00
2023-08-10T10:40:16.938Z,65535.00
2023-08-10T10:41:12.433Z,65535.00
2023-08-10T10:42:07.994Z,65535.00
2023-08-10T10:43:03.940Z,65535.00
2023-08-10T10:43:59.384Z,65535.00
2023-08-10T10:44:54.918Z,65535.00
2023-08-10T10:45:51.123Z,65535.00
2023-08-10T10:46:46.622Z,65535.00
2023-08-10T10:47:42.379Z,57968.00
2023-08-10T10:48:37.886Z,24976.00
2023-08-10T10:49:33.646Z,65535.00
2023-08-10T10:50:29.168Z,65535.00
2023-08-10T10:51:24.702Z,65535.00
2023-08-10T10:52:20.643Z,65535.00
2023-08-10T10:53:15.873Z,65535.00
2023-08-10T10:54:11.231Z,65535.00
2023-08-10T10:55:07.210Z,65535.00
2023-08-10T10:56:02.673Z,65535.00
2023-08-10T10:56:58.138Z,65535.00
2023-08-10T10:57:53.788Z,65535.00
2023-08-10T10:58:49.146Z,65535.00
2023-08-10T10:59:48.344Z,65535.00
2023-08-10T11:00:45.472Z,62056.00
2023-08-10T11:01:39.171Z,65535.00
2023-08-10T11:02:34.837Z,65535.00
2023-08-10T11:03:31.023Z,65535.00
2023-08-10T11:04:26.462Z,65535.00
2023-08-10T11:05:22.130Z,65535.00
2023-08-10T11:06:17.603Z,65535.00
2023-08-10T11:07:13.239Z,65535.00
2023-08-10T11:08:08.720Z,65535.00
2023-08-10T11:09:04.214Z,65535.00
2023-08-10T11:09:59.597Z,65535.00
2023-08-10T11:10:55.064Z,65535.00
2023-08-10T11:11:49.487Z,65535.00
2023-08-10T11:12:44.579Z,65535.00
2023-08-10T11:13:39.535Z,65535.00
2023-08-10T11:14:37.189Z,65535.00
2023-08-10T11:15:32.572Z,65535.00
2023-08-10T11:16:27.306Z,65535.00
2023-08-10T11:17:22.356Z,65535.00
2023-08-10T11:18:17.439Z,65535.00
2023-08-10T11:19:12.492Z,65535.00
2023-08-10T11:20:07.551Z,65535.00
2023-08-10T11:21:02.972Z,65535.00
2023-08-10T11:21:57.715Z,65535.00
2023-08-10T11:22:52.696Z,65535.00
2023-08-10T11:23:49.018Z,65535.00
2023-08-10T11:24:44.448Z,65535.00
2023-08-10T11:25:40.346Z,65535.00
2023-08-10T11:26:36.130Z,65535.00
2023-08-10T11:27:31.315Z,65535.00
2023-08-10T11:28:27.137Z,65535.00